SBI weather

Sambailo Airport
Koundara, Boké Region, Guinea

Public forecast

Using degrees Celsius for public forecast. Weather courtesy of forecast.io.

METAR (pilot weather report)

Report is more than 2 hours old.

Closest report is Kédougou Airport, 66.7 nm (123.5 km) E. Retrieved 2019/04/20 09:00 UTC (3 hours ago):

GOTK 200900Z 28008KT CAVOK 31/18 Q1011

TAF (pilot weather forecast)

Forecast is more than 12 hours old.

Closest forecast is Osvaldo Vieira International Airport, 140.7 nm (260.6 km) WSW. Retrieved 2019/04/19 00:00 UTC (1 day ago):

TAF GGOV 192300Z 2000/2024 23010KT CAVOK